sensor_id;sensor_type;location;lat;lon;timestamp;P1;durP1;ratioP1;P2;durP2;ratioP2
3527;SDS011;1778;47.966;7.854;2022-11-13T00:00:57;4.17;;;4.07;;
3527;SDS011;1778;47.966;7.854;2022-11-13T00:02:26;3.80;;;3.70;;
3527;SDS011;1778;47.966;7.854;2022-11-13T00:03:46;3.87;;;3.63;;
3527;SDS011;1778;47.966;7.854;2022-11-13T00:05:07;4.57;;;4.27;;
3527;SDS011;1778;47.966;7.854;2022-11-13T00:06:27;3.57;;;3.47;;
3527;SDS011;1778;47.966;7.854;2022-11-13T00:07:47;3.50;;;3.40;;
3527;SDS011;1778;47.966;7.854;2022-11-13T00:09:09;4.27;;;3.90;;
3527;SDS011;1778;47.966;7.854;2022-11-13T00:10:30;3.50;;;3.40;;
3527;SDS011;1778;47.966;7.854;2022-11-13T00:11:50;4.00;;;3.80;;
3527;SDS011;1778;47.966;7.854;2022-11-13T00:13:10;4.53;;;4.37;;
3527;SDS011;1778;47.966;7.854;2022-11-13T00:14:30;7.63;;;3.47;;
3527;SDS011;1778;47.966;7.854;2022-11-13T00:16:00;4.17;;;3.97;;
3527;SDS011;1778;47.966;7.854;2022-11-13T00:17:22;4.03;;;3.83;;
3527;SDS011;1778;47.966;7.854;2022-11-13T00:18:42;4.13;;;3.80;;
3527;SDS011;1778;47.966;7.854;2022-11-13T00:20:02;3.40;;;3.30;;
3527;SDS011;1778;47.966;7.854;2022-11-13T00:21:24;3.80;;;3.70;;
3527;SDS011;1778;47.966;7.854;2022-11-13T00:22:46;3.90;;;3.60;;
3527;SDS011;1778;47.966;7.854;2022-11-13T00:24:06;4.10;;;4.00;;
3527;SDS011;1778;47.966;7.854;2022-11-13T00:25:26;5.13;;;4.83;;
3527;SDS011;1778;47.966;7.854;2022-11-13T00:26:46;3.90;;;3.80;;
3527;SDS011;1778;47.966;7.854;2022-11-13T00:28:07;3.50;;;3.37;;
3527;SDS011;1778;47.966;7.854;2022-11-13T00:29:27;4.40;;;4.13;;
3527;SDS011;1778;47.966;7.854;2022-11-13T00:30:47;3.20;;;3.10;;
3527;SDS011;1778;47.966;7.854;2022-11-13T00:32:07;3.33;;;3.33;;
3527;SDS011;1778;47.966;7.854;2022-11-13T00:33:27;3.60;;;3.50;;
3527;SDS011;1778;47.966;7.854;2022-11-13T00:35:08;4.10;;;3.80;;
3527;SDS011;1778;47.966;7.854;2022-11-13T00:36:27;4.10;;;4.00;;
3527;SDS011;1778;47.966;7.854;2022-11-13T00:37:48;3.77;;;3.67;;
3527;SDS011;1778;47.966;7.854;2022-11-13T00:39:08;3.77;;;3.57;;
3527;SDS011;1778;47.966;7.854;2022-11-13T00:40:29;3.97;;;3.87;;
3527;SDS011;1778;47.966;7.854;2022-11-13T00:41:49;4.23;;;4.03;;
3527;SDS011;1778;47.966;7.854;2022-11-13T00:43:10;4.33;;;4.10;;
3527;SDS011;1778;47.966;7.854;2022-11-13T00:44:29;3.00;;;3.00;;
3527;SDS011;1778;47.966;7.854;2022-11-13T00:45:50;4.30;;;4.10;;
3527;SDS011;1778;47.966;7.854;2022-11-13T00:47:10;4.17;;;4.07;;
3527;SDS011;1778;47.966;7.854;2022-11-13T00:48:31;3.80;;;3.60;;
3527;SDS011;1778;47.966;7.854;2022-11-13T00:49:51;4.10;;;4.00;;
3527;SDS011;1778;47.966;7.854;2022-11-13T00:51:11;5.00;;;4.63;;
3527;SDS011;1778;47.966;7.854;2022-11-13T00:52:32;4.00;;;3.90;;
3527;SDS011;1778;47.966;7.854;2022-11-13T00:53:52;3.90;;;3.80;;
3527;SDS011;1778;47.966;7.854;2022-11-13T00:55:12;4.50;;;4.30;;
3527;SDS011;1778;47.966;7.854;2022-11-13T00:56:32;3.80;;;3.70;;
3527;SDS011;1778;47.966;7.854;2022-11-13T00:57:52;3.67;;;3.63;;
3527;SDS011;1778;47.966;7.854;2022-11-13T00:59:12;3.73;;;3.63;;
3527;SDS011;1778;47.966;7.854;2022-11-13T01:00:32;3.60;;;3.50;;
3527;SDS011;1778;47.966;7.854;2022-11-13T01:01:52;4.63;;;4.43;;
3527;SDS011;1778;47.966;7.854;2022-11-13T01:03:12;4.20;;;4.10;;
3527;SDS011;1778;47.966;7.854;2022-11-13T01:04:33;4.57;;;4.37;;
3527;SDS011;1778;47.966;7.854;2022-11-13T01:05:53;5.00;;;4.50;;
3527;SDS011;1778;47.966;7.854;2022-11-13T01:07:13;4.10;;;4.00;;
3527;SDS011;1778;47.966;7.854;2022-11-13T01:08:33;3.63;;;3.53;;
3527;SDS011;1778;47.966;7.854;2022-11-13T01:09:54;3.83;;;3.73;;
3527;SDS011;1778;47.966;7.854;2022-11-13T01:11:15;3.40;;;3.30;;
3527;SDS011;1778;47.966;7.854;2022-11-13T01:12:37;4.70;;;4.50;;
3527;SDS011;1778;47.966;7.854;2022-11-13T01:13:57;3.70;;;3.60;;
3527;SDS011;1778;47.966;7.854;2022-11-13T01:15:17;5.53;;;5.13;;
3527;SDS011;1778;47.966;7.854;2022-11-13T01:16:37;4.17;;;3.97;;
3527;SDS011;1778;47.966;7.854;2022-11-13T01:17:57;21.73;;;4.60;;
3527;SDS011;1778;47.966;7.854;2022-11-13T01:19:17;4.17;;;4.07;;
3527;SDS011;1778;47.966;7.854;2022-11-13T01:20:37;4.50;;;4.30;;
3527;SDS011;1778;47.966;7.854;2022-11-13T01:21:57;4.30;;;4.10;;
3527;SDS011;1778;47.966;7.854;2022-11-13T01:23:17;3.73;;;3.63;;
3527;SDS011;1778;47.966;7.854;2022-11-13T01:24:37;4.13;;;3.83;;
3527;SDS011;1778;47.966;7.854;2022-11-13T01:26:08;4.47;;;4.27;;
3527;SDS011;1778;47.966;7.854;2022-11-13T01:27:36;4.57;;;4.37;;
3527;SDS011;1778;47.966;7.854;2022-11-13T01:28:57;4.47;;;4.17;;
3527;SDS011;1778;47.966;7.854;2022-11-13T01:30:19;4.60;;;4.20;;
3527;SDS011;1778;47.966;7.854;2022-11-13T01:31:39;4.67;;;4.43;;
3527;SDS011;1778;47.966;7.854;2022-11-13T01:32:59;4.97;;;4.77;;
3527;SDS011;1778;47.966;7.854;2022-11-13T01:34:19;4.57;;;4.27;;
3527;SDS011;1778;47.966;7.854;2022-11-13T01:35:39;4.87;;;4.40;;
3527;SDS011;1778;47.966;7.854;2022-11-13T01:36:59;3.40;;;3.30;;
3527;SDS011;1778;47.966;7.854;2022-11-13T01:38:19;4.83;;;4.63;;
3527;SDS011;1778;47.966;7.854;2022-11-13T01:39:39;3.43;;;3.43;;
3527;SDS011;1778;47.966;7.854;2022-11-13T01:40:59;3.83;;;3.73;;
3527;SDS011;1778;47.966;7.854;2022-11-13T01:42:19;4.60;;;4.40;;
3527;SDS011;1778;47.966;7.854;2022-11-13T01:43:39;3.73;;;3.63;;
3527;SDS011;1778;47.966;7.854;2022-11-13T01:45:00;3.90;;;3.80;;
3527;SDS011;1778;47.966;7.854;2022-11-13T01:47:57;4.13;;;4.03;;
3527;SDS011;1778;47.966;7.854;2022-11-13T01:49:33;4.00;;;3.90;;
3527;SDS011;1778;47.966;7.854;2022-11-13T01:50:56;3.63;;;3.53;;
3527;SDS011;1778;47.966;7.854;2022-11-13T01:52:20;4.00;;;3.90;;
3527;SDS011;1778;47.966;7.854;2022-11-13T01:53:46;3.37;;;3.27;;
3527;SDS011;1778;47.966;7.854;2022-11-13T01:55:08;3.20;;;3.10;;
3527;SDS011;1778;47.966;7.854;2022-11-13T01:56:31;3.93;;;3.73;;
3527;SDS011;1778;47.966;7.854;2022-11-13T01:57:51;4.33;;;4.13;;
3527;SDS011;1778;47.966;7.854;2022-11-13T01:59:12;3.07;;;2.97;;
3527;SDS011;1778;47.966;7.854;2022-11-13T02:00:35;3.53;;;3.43;;
3527;SDS011;1778;47.966;7.854;2022-11-13T02:01:55;3.57;;;3.37;;
3527;SDS011;1778;47.966;7.854;2022-11-13T02:03:16;4.13;;;4.03;;
3527;SDS011;1778;47.966;7.854;2022-11-13T02:04:36;2.77;;;2.77;;
3527;SDS011;1778;47.966;7.854;2022-11-13T02:05:56;2.93;;;2.83;;
3527;SDS011;1778;47.966;7.854;2022-11-13T02:07:16;4.20;;;4.00;;
3527;SDS011;1778;47.966;7.854;2022-11-13T02:08:40;3.67;;;3.57;;
3527;SDS011;1778;47.966;7.854;2022-11-13T02:10:02;3.67;;;3.57;;
3527;SDS011;1778;47.966;7.854;2022-11-13T02:11:22;4.00;;;3.83;;
3527;SDS011;1778;47.966;7.854;2022-11-13T02:12:44;4.10;;;4.00;;
3527;SDS011;1778;47.966;7.854;2022-11-13T02:14:07;3.53;;;3.43;;
3527;SDS011;1778;47.966;7.854;2022-11-13T02:15:29;3.53;;;3.43;;
3527;SDS011;1778;47.966;7.854;2022-11-13T02:16:55;15.63;;;3.40;;
3527;SDS011;1778;47.966;7.854;2022-11-13T02:18:19;3.30;;;3.30;;
3527;SDS011;1778;47.966;7.854;2022-11-13T02:19:42;3.83;;;3.73;;
3527;SDS011;1778;47.966;7.854;2022-11-13T02:21:26;4.00;;;3.80;;
3527;SDS011;1778;47.966;7.854;2022-11-13T02:23:11;3.10;;;3.10;;
3527;SDS011;1778;47.966;7.854;2022-11-13T02:24:33;3.70;;;3.50;;
3527;SDS011;1778;47.966;7.854;2022-11-13T02:26:03;3.20;;;3.20;;
3527;SDS011;1778;47.966;7.854;2022-11-13T02:27:27;3.57;;;3.47;;
3527;SDS011;1778;47.966;7.854;2022-11-13T02:28:53;4.07;;;3.90;;
3527;SDS011;1778;47.966;7.854;2022-11-13T02:31:44;3.60;;;3.50;;
3527;SDS011;1778;47.966;7.854;2022-11-13T02:33:25;3.87;;;3.57;;
3527;SDS011;1778;47.966;7.854;2022-11-13T02:34:46;3.27;;;3.17;;
3527;SDS011;1778;47.966;7.854;2022-11-13T02:36:06;4.20;;;3.87;;
3527;SDS011;1778;47.966;7.854;2022-11-13T02:37:28;4.17;;;4.07;;
3527;SDS011;1778;47.966;7.854;2022-11-13T02:38:48;4.27;;;3.97;;
3527;SDS011;1778;47.966;7.854;2022-11-13T02:40:10;3.80;;;3.60;;
3527;SDS011;1778;47.966;7.854;2022-11-13T02:41:31;3.37;;;3.27;;
3527;SDS011;1778;47.966;7.854;2022-11-13T02:42:51;3.50;;;3.40;;
3527;SDS011;1778;47.966;7.854;2022-11-13T02:44:12;3.50;;;3.40;;
3527;SDS011;1778;47.966;7.854;2022-11-13T02:45:31;4.03;;;3.80;;
3527;SDS011;1778;47.966;7.854;2022-11-13T02:46:51;3.90;;;3.60;;
3527;SDS011;1778;47.966;7.854;2022-11-13T02:48:11;3.50;;;3.40;;
3527;SDS011;1778;47.966;7.854;2022-11-13T02:49:31;3.47;;;3.37;;
3527;SDS011;1778;47.966;7.854;2022-11-13T02:50:51;3.40;;;3.30;;
3527;SDS011;1778;47.966;7.854;2022-11-13T02:52:11;3.80;;;3.70;;
3527;SDS011;1778;47.966;7.854;2022-11-13T02:53:31;3.37;;;3.33;;
3527;SDS011;1778;47.966;7.854;2022-11-13T02:54:51;4.57;;;4.37;;
3527;SDS011;1778;47.966;7.854;2022-11-13T02:56:11;3.27;;;3.17;;
3527;SDS011;1778;47.966;7.854;2022-11-13T02:57:32;3.57;;;3.37;;
3527;SDS011;1778;47.966;7.854;2022-11-13T02:58:52;3.27;;;2.97;;
3527;SDS011;1778;47.966;7.854;2022-11-13T03:00:13;3.63;;;3.43;;
3527;SDS011;1778;47.966;7.854;2022-11-13T03:01:33;3.10;;;3.00;;
3527;SDS011;1778;47.966;7.854;2022-11-13T03:02:53;3.70;;;3.60;;
3527;SDS011;1778;47.966;7.854;2022-11-13T03:04:14;4.00;;;3.77;;
3527;SDS011;1778;47.966;7.854;2022-11-13T03:05:34;3.40;;;3.30;;
3527;SDS011;1778;47.966;7.854;2022-11-13T03:06:53;3.20;;;3.20;;
3527;SDS011;1778;47.966;7.854;2022-11-13T03:08:14;3.60;;;3.50;;
3527;SDS011;1778;47.966;7.854;2022-11-13T03:09:34;3.50;;;3.40;;
3527;SDS011;1778;47.966;7.854;2022-11-13T03:10:54;4.00;;;3.90;;
3527;SDS011;1778;47.966;7.854;2022-11-13T03:12:14;3.73;;;3.63;;
3527;SDS011;1778;47.966;7.854;2022-11-13T03:13:35;3.30;;;3.20;;
3527;SDS011;1778;47.966;7.854;2022-11-13T03:14:55;3.57;;;3.47;;
3527;SDS011;1778;47.966;7.854;2022-11-13T03:16:16;3.03;;;2.93;;
3527;SDS011;1778;47.966;7.854;2022-11-13T03:17:36;3.90;;;3.80;;
3527;SDS011;1778;47.966;7.854;2022-11-13T03:18:56;3.33;;;3.23;;
3527;SDS011;1778;47.966;7.854;2022-11-13T03:20:16;3.37;;;3.27;;
3527;SDS011;1778;47.966;7.854;2022-11-13T03:21:36;3.33;;;2.87;;
3527;SDS011;1778;47.966;7.854;2022-11-13T03:22:56;3.13;;;3.03;;
3527;SDS011;1778;47.966;7.854;2022-11-13T03:24:16;3.50;;;3.40;;
3527;SDS011;1778;47.966;7.854;2022-11-13T03:25:37;3.30;;;3.30;;
3527;SDS011;1778;47.966;7.854;2022-11-13T03:26:56;3.50;;;3.40;;
3527;SDS011;1778;47.966;7.854;2022-11-13T03:28:16;3.27;;;3.17;;
3527;SDS011;1778;47.966;7.854;2022-11-13T03:29:36;3.90;;;3.80;;
3527;SDS011;1778;47.966;7.854;2022-11-13T03:30:56;3.17;;;3.07;;
3527;SDS011;1778;47.966;7.854;2022-11-13T03:32:16;3.20;;;3.10;;
3527;SDS011;1778;47.966;7.854;2022-11-13T03:33:37;3.33;;;3.23;;
3527;SDS011;1778;47.966;7.854;2022-11-13T03:34:57;3.00;;;3.00;;
3527;SDS011;1778;47.966;7.854;2022-11-13T03:36:16;3.50;;;3.40;;
3527;SDS011;1778;47.966;7.854;2022-11-13T03:37:36;3.97;;;3.77;;
3527;SDS011;1778;47.966;7.854;2022-11-13T03:38:57;3.87;;;3.67;;
3527;SDS011;1778;47.966;7.854;2022-11-13T03:40:17;3.00;;;2.90;;
3527;SDS011;1778;47.966;7.854;2022-11-13T03:41:37;3.33;;;3.20;;
3527;SDS011;1778;47.966;7.854;2022-11-13T03:42:57;3.57;;;3.47;;
3527;SDS011;1778;47.966;7.854;2022-11-13T03:44:18;3.20;;;3.10;;
3527;SDS011;1778;47.966;7.854;2022-11-13T03:45:38;3.80;;;3.60;;
3527;SDS011;1778;47.966;7.854;2022-11-13T03:46:58;3.37;;;3.37;;
3527;SDS011;1778;47.966;7.854;2022-11-13T03:48:18;3.20;;;3.07;;
3527;SDS011;1778;47.966;7.854;2022-11-13T03:49:37;4.07;;;3.97;;
3527;SDS011;1778;47.966;7.854;2022-11-13T03:50:57;3.33;;;3.23;;
3527;SDS011;1778;47.966;7.854;2022-11-13T03:52:18;3.43;;;3.43;;
3527;SDS011;1778;47.966;7.854;2022-11-13T03:53:37;3.47;;;3.37;;
3527;SDS011;1778;47.966;7.854;2022-11-13T03:54:57;3.27;;;3.17;;
3527;SDS011;1778;47.966;7.854;2022-11-13T03:56:18;4.00;;;3.83;;
3527;SDS011;1778;47.966;7.854;2022-11-13T03:57:38;3.73;;;3.67;;
3527;SDS011;1778;47.966;7.854;2022-11-13T03:58:58;3.57;;;3.47;;
3527;SDS011;1778;47.966;7.854;2022-11-13T04:00:18;3.07;;;3.07;;
3527;SDS011;1778;47.966;7.854;2022-11-13T04:01:38;4.20;;;4.10;;
3527;SDS011;1778;47.966;7.854;2022-11-13T04:02:59;3.70;;;3.37;;
3527;SDS011;1778;47.966;7.854;2022-11-13T04:04:19;3.20;;;3.00;;
3527;SDS011;1778;47.966;7.854;2022-11-13T04:05:40;3.47;;;3.37;;
3527;SDS011;1778;47.966;7.854;2022-11-13T04:07:01;3.40;;;3.30;;
3527;SDS011;1778;47.966;7.854;2022-11-13T04:08:21;3.70;;;3.53;;
3527;SDS011;1778;47.966;7.854;2022-11-13T04:09:41;3.53;;;3.40;;
3527;SDS011;1778;47.966;7.854;2022-11-13T04:11:08;4.00;;;3.70;;
3527;SDS011;1778;47.966;7.854;2022-11-13T04:12:29;3.07;;;2.97;;
3527;SDS011;1778;47.966;7.854;2022-11-13T04:13:49;3.17;;;3.07;;
3527;SDS011;1778;47.966;7.854;2022-11-13T04:15:09;4.37;;;4.17;;
3527;SDS011;1778;47.966;7.854;2022-11-13T04:16:29;3.73;;;3.63;;
3527;SDS011;1778;47.966;7.854;2022-11-13T04:17:49;3.60;;;3.50;;
3527;SDS011;1778;47.966;7.854;2022-11-13T04:19:10;3.27;;;3.17;;
3527;SDS011;1778;47.966;7.854;2022-11-13T04:20:30;2.83;;;2.83;;
3527;SDS011;1778;47.966;7.854;2022-11-13T04:21:50;2.50;;;2.47;;
3527;SDS011;1778;47.966;7.854;2022-11-13T04:23:10;3.10;;;3.00;;
3527;SDS011;1778;47.966;7.854;2022-11-13T04:24:32;3.03;;;3.00;;
3527;SDS011;1778;47.966;7.854;2022-11-13T04:25:52;3.30;;;3.20;;
3527;SDS011;1778;47.966;7.854;2022-11-13T04:27:13;3.53;;;3.33;;
3527;SDS011;1778;47.966;7.854;2022-11-13T04:28:33;3.33;;;3.23;;
3527;SDS011;1778;47.966;7.854;2022-11-13T04:29:53;3.00;;;2.90;;
3527;SDS011;1778;47.966;7.854;2022-11-13T04:31:13;2.87;;;2.87;;
3527;SDS011;1778;47.966;7.854;2022-11-13T04:32:32;2.60;;;2.60;;
3527;SDS011;1778;47.966;7.854;2022-11-13T04:33:52;3.40;;;3.23;;
3527;SDS011;1778;47.966;7.854;2022-11-13T04:35:12;3.10;;;3.10;;
3527;SDS011;1778;47.966;7.854;2022-11-13T04:36:32;3.13;;;3.10;;
3527;SDS011;1778;47.966;7.854;2022-11-13T04:37:52;4.03;;;3.83;;
3527;SDS011;1778;47.966;7.854;2022-11-13T04:39:12;3.47;;;3.37;;
3527;SDS011;1778;47.966;7.854;2022-11-13T04:40:32;3.07;;;2.97;;
3527;SDS011;1778;47.966;7.854;2022-11-13T04:41:52;3.00;;;2.90;;
3527;SDS011;1778;47.966;7.854;2022-11-13T04:43:31;3.80;;;3.60;;
3527;SDS011;1778;47.966;7.854;2022-11-13T04:44:51;2.93;;;2.93;;
3527;SDS011;1778;47.966;7.854;2022-11-13T04:46:11;2.73;;;2.63;;
3527;SDS011;1778;47.966;7.854;2022-11-13T04:47:31;3.00;;;3.00;;
3527;SDS011;1778;47.966;7.854;2022-11-13T04:48:51;3.00;;;3.00;;
3527;SDS011;1778;47.966;7.854;2022-11-13T04:50:12;3.27;;;3.17;;
3527;SDS011;1778;47.966;7.854;2022-11-13T04:51:34;3.00;;;2.80;;
3527;SDS011;1778;47.966;7.854;2022-11-13T04:52:54;2.93;;;2.83;;
3527;SDS011;1778;47.966;7.854;2022-11-13T04:54:14;3.13;;;3.07;;
3527;SDS011;1778;47.966;7.854;2022-11-13T04:55:33;3.00;;;2.80;;
3527;SDS011;1778;47.966;7.854;2022-11-13T04:56:53;3.00;;;2.90;;
3527;SDS011;1778;47.966;7.854;2022-11-13T04:58:13;2.63;;;2.63;;
3527;SDS011;1778;47.966;7.854;2022-11-13T04:59:33;3.93;;;3.63;;
3527;SDS011;1778;47.966;7.854;2022-11-13T05:00:53;3.27;;;3.17;;
3527;SDS011;1778;47.966;7.854;2022-11-13T05:02:13;3.23;;;3.13;;
3527;SDS011;1778;47.966;7.854;2022-11-13T05:03:33;3.03;;;2.93;;
3527;SDS011;1778;47.966;7.854;2022-11-13T05:04:53;3.00;;;2.90;;
3527;SDS011;1778;47.966;7.854;2022-11-13T05:06:13;3.30;;;3.30;;
3527;SDS011;1778;47.966;7.854;2022-11-13T05:07:33;3.13;;;3.13;;
3527;SDS011;1778;47.966;7.854;2022-11-13T05:08:53;3.67;;;3.57;;
3527;SDS011;1778;47.966;7.854;2022-11-13T05:10:14;2.70;;;2.70;;
3527;SDS011;1778;47.966;7.854;2022-11-13T05:11:34;2.80;;;2.70;;
3527;SDS011;1778;47.966;7.854;2022-11-13T05:12:56;2.90;;;2.80;;
3527;SDS011;1778;47.966;7.854;2022-11-13T05:14:16;3.07;;;3.00;;
3527;SDS011;1778;47.966;7.854;2022-11-13T05:15:36;3.07;;;2.97;;
3527;SDS011;1778;47.966;7.854;2022-11-13T05:16:56;2.97;;;2.87;;
3527;SDS011;1778;47.966;7.854;2022-11-13T05:18:16;2.90;;;2.90;;
3527;SDS011;1778;47.966;7.854;2022-11-13T05:19:36;3.20;;;3.10;;
3527;SDS011;1778;47.966;7.854;2022-11-13T05:20:57;3.00;;;2.90;;
3527;SDS011;1778;47.966;7.854;2022-11-13T05:22:17;3.40;;;3.30;;
3527;SDS011;1778;47.966;7.854;2022-11-13T05:23:37;3.30;;;3.20;;
3527;SDS011;1778;47.966;7.854;2022-11-13T05:24:58;2.60;;;2.60;;
3527;SDS011;1778;47.966;7.854;2022-11-13T05:26:18;2.67;;;2.57;;
3527;SDS011;1778;47.966;7.854;2022-11-13T05:27:38;3.60;;;3.50;;
3527;SDS011;1778;47.966;7.854;2022-11-13T05:29:00;3.87;;;3.77;;
3527;SDS011;1778;47.966;7.854;2022-11-13T05:30:21;2.90;;;2.80;;
3527;SDS011;1778;47.966;7.854;2022-11-13T05:31:41;2.87;;;2.87;;
3527;SDS011;1778;47.966;7.854;2022-11-13T05:33:01;2.70;;;2.70;;
3527;SDS011;1778;47.966;7.854;2022-11-13T05:34:21;2.40;;;2.40;;
3527;SDS011;1778;47.966;7.854;2022-11-13T05:35:41;3.37;;;3.27;;
3527;SDS011;1778;47.966;7.854;2022-11-13T05:37:01;3.13;;;3.03;;
3527;SDS011;1778;47.966;7.854;2022-11-13T05:38:21;2.83;;;2.73;;
3527;SDS011;1778;47.966;7.854;2022-11-13T05:39:41;3.07;;;2.87;;
3527;SDS011;1778;47.966;7.854;2022-11-13T05:41:06;3.10;;;3.10;;
3527;SDS011;1778;47.966;7.854;2022-11-13T05:42:31;3.00;;;2.90;;
3527;SDS011;1778;47.966;7.854;2022-11-13T05:43:52;2.93;;;2.83;;
3527;SDS011;1778;47.966;7.854;2022-11-13T05:45:17;2.70;;;2.70;;
3527;SDS011;1778;47.966;7.854;2022-11-13T05:46:38;3.20;;;3.13;;
3527;SDS011;1778;47.966;7.854;2022-11-13T05:47:58;2.70;;;2.70;;
3527;SDS011;1778;47.966;7.854;2022-11-13T05:49:18;2.60;;;2.60;;
3527;SDS011;1778;47.966;7.854;2022-11-13T05:50:38;3.23;;;3.13;;
3527;SDS011;1778;47.966;7.854;2022-11-13T05:51:58;2.80;;;2.70;;
3527;SDS011;1778;47.966;7.854;2022-11-13T05:53:19;3.13;;;3.10;;
3527;SDS011;1778;47.966;7.854;2022-11-13T05:54:39;2.60;;;2.60;;
3527;SDS011;1778;47.966;7.854;2022-11-13T05:55:59;3.00;;;3.00;;
3527;SDS011;1778;47.966;7.854;2022-11-13T05:57:21;2.90;;;2.90;;
3527;SDS011;1778;47.966;7.854;2022-11-13T05:58:41;2.80;;;2.80;;
3527;SDS011;1778;47.966;7.854;2022-11-13T06:00:02;2.80;;;2.80;;
3527;SDS011;1778;47.966;7.854;2022-11-13T06:01:29;2.80;;;2.80;;
3527;SDS011;1778;47.966;7.854;2022-11-13T06:02:55;3.60;;;3.40;;
3527;SDS011;1778;47.966;7.854;2022-11-13T06:04:14;2.50;;;2.50;;
3527;SDS011;1778;47.966;7.854;2022-11-13T06:05:34;2.47;;;2.47;;
3527;SDS011;1778;47.966;7.854;2022-11-13T06:06:54;2.70;;;2.70;;
3527;SDS011;1778;47.966;7.854;2022-11-13T06:08:14;2.60;;;2.60;;
3527;SDS011;1778;47.966;7.854;2022-11-13T06:09:35;2.90;;;2.87;;
3527;SDS011;1778;47.966;7.854;2022-11-13T06:10:58;2.83;;;2.73;;
3527;SDS011;1778;47.966;7.854;2022-11-13T06:12:19;2.47;;;2.47;;
3527;SDS011;1778;47.966;7.854;2022-11-13T06:13:39;2.90;;;2.90;;
3527;SDS011;1778;47.966;7.854;2022-11-13T06:15:00;3.37;;;3.27;;
3527;SDS011;1778;47.966;7.854;2022-11-13T06:16:21;3.07;;;3.07;;
3527;SDS011;1778;47.966;7.854;2022-11-13T06:17:45;3.80;;;3.70;;
3527;SDS011;1778;47.966;7.854;2022-11-13T06:19:07;2.67;;;2.67;;
3527;SDS011;1778;47.966;7.854;2022-11-13T06:20:29;2.90;;;2.80;;
3527;SDS011;1778;47.966;7.854;2022-11-13T06:21:49;3.00;;;2.80;;
3527;SDS011;1778;47.966;7.854;2022-11-13T06:23:09;2.97;;;2.97;;
3527;SDS011;1778;47.966;7.854;2022-11-13T06:24:29;3.13;;;3.13;;
3527;SDS011;1778;47.966;7.854;2022-11-13T06:25:50;2.97;;;2.87;;
3527;SDS011;1778;47.966;7.854;2022-11-13T06:27:10;2.90;;;2.80;;
3527;SDS011;1778;47.966;7.854;2022-11-13T06:28:31;3.00;;;3.00;;
3527;SDS011;1778;47.966;7.854;2022-11-13T06:29:51;3.37;;;3.27;;
3527;SDS011;1778;47.966;7.854;2022-11-13T06:31:13;3.33;;;3.23;;
3527;SDS011;1778;47.966;7.854;2022-11-13T06:32:40;3.17;;;3.07;;
3527;SDS011;1778;47.966;7.854;2022-11-13T06:34:00;2.87;;;2.77;;
3527;SDS011;1778;47.966;7.854;2022-11-13T06:35:21;3.10;;;3.00;;
3527;SDS011;1778;47.966;7.854;2022-11-13T06:36:42;2.57;;;2.57;;
3527;SDS011;1778;47.966;7.854;2022-11-13T06:38:02;2.50;;;2.50;;
3527;SDS011;1778;47.966;7.854;2022-11-13T06:39:22;2.50;;;2.50;;
3527;SDS011;1778;47.966;7.854;2022-11-13T06:40:42;2.50;;;2.40;;
3527;SDS011;1778;47.966;7.854;2022-11-13T06:42:02;2.60;;;2.53;;
3527;SDS011;1778;47.966;7.854;2022-11-13T06:43:22;2.63;;;2.63;;
3527;SDS011;1778;47.966;7.854;2022-11-13T06:44:42;2.33;;;2.33;;
3527;SDS011;1778;47.966;7.854;2022-11-13T06:46:04;3.03;;;2.90;;
3527;SDS011;1778;47.966;7.854;2022-11-13T06:47:26;3.00;;;2.90;;
3527;SDS011;1778;47.966;7.854;2022-11-13T06:48:47;2.67;;;2.47;;
3527;SDS011;1778;47.966;7.854;2022-11-13T06:50:08;3.30;;;3.20;;
3527;SDS011;1778;47.966;7.854;2022-11-13T06:51:28;2.47;;;2.47;;
3527;SDS011;1778;47.966;7.854;2022-11-13T06:52:49;2.50;;;2.50;;
3527;SDS011;1778;47.966;7.854;2022-11-13T06:54:09;2.30;;;2.30;;
3527;SDS011;1778;47.966;7.854;2022-11-13T06:55:29;2.67;;;2.50;;
3527;SDS011;1778;47.966;7.854;2022-11-13T06:56:49;2.57;;;2.57;;
3527;SDS011;1778;47.966;7.854;2022-11-13T06:58:10;4.50;;;4.30;;
3527;SDS011;1778;47.966;7.854;2022-11-13T06:59:31;2.30;;;2.30;;
3527;SDS011;1778;47.966;7.854;2022-11-13T07:00:51;2.37;;;2.37;;
3527;SDS011;1778;47.966;7.854;2022-11-13T07:02:11;2.60;;;2.60;;
3527;SDS011;1778;47.966;7.854;2022-11-13T07:03:31;3.10;;;3.00;;
3527;SDS011;1778;47.966;7.854;2022-11-13T07:04:52;2.53;;;2.43;;
3527;SDS011;1778;47.966;7.854;2022-11-13T07:06:12;2.07;;;2.07;;
3527;SDS011;1778;47.966;7.854;2022-11-13T07:07:34;2.47;;;2.47;;
3527;SDS011;1778;47.966;7.854;2022-11-13T07:08:54;2.57;;;2.57;;
3527;SDS011;1778;47.966;7.854;2022-11-13T07:10:14;2.50;;;2.50;;
3527;SDS011;1778;47.966;7.854;2022-11-13T07:11:34;2.30;;;2.20;;
3527;SDS011;1778;47.966;7.854;2022-11-13T07:12:57;2.83;;;2.73;;
3527;SDS011;1778;47.966;7.854;2022-11-13T07:14:18;3.00;;;2.90;;
3527;SDS011;1778;47.966;7.854;2022-11-13T07:15:38;2.50;;;2.50;;
3527;SDS011;1778;47.966;7.854;2022-11-13T07:16:59;2.90;;;2.80;;
3527;SDS011;1778;47.966;7.854;2022-11-13T07:18:34;2.50;;;2.50;;
3527;SDS011;1778;47.966;7.854;2022-11-13T07:19:54;2.97;;;2.87;;
3527;SDS011;1778;47.966;7.854;2022-11-13T07:21:15;2.73;;;2.63;;
3527;SDS011;1778;47.966;7.854;2022-11-13T07:22:35;2.63;;;2.53;;
3527;SDS011;1778;47.966;7.854;2022-11-13T07:23:55;3.20;;;3.10;;
3527;SDS011;1778;47.966;7.854;2022-11-13T07:25:15;3.27;;;3.17;;
3527;SDS011;1778;47.966;7.854;2022-11-13T07:26:35;2.50;;;2.40;;
3527;SDS011;1778;47.966;7.854;2022-11-13T07:27:55;2.67;;;2.67;;
3527;SDS011;1778;47.966;7.854;2022-11-13T07:29:15;2.60;;;2.50;;
3527;SDS011;1778;47.966;7.854;2022-11-13T07:30:35;2.40;;;2.30;;
3527;SDS011;1778;47.966;7.854;2022-11-13T07:31:55;2.30;;;2.20;;
3527;SDS011;1778;47.966;7.854;2022-11-13T07:33:15;2.67;;;2.57;;
3527;SDS011;1778;47.966;7.854;2022-11-13T07:34:35;2.40;;;2.40;;
3527;SDS011;1778;47.966;7.854;2022-11-13T07:35:55;2.40;;;2.40;;
3527;SDS011;1778;47.966;7.854;2022-11-13T07:37:16;2.40;;;2.40;;
3527;SDS011;1778;47.966;7.854;2022-11-13T07:38:36;2.60;;;2.50;;
3527;SDS011;1778;47.966;7.854;2022-11-13T07:39:57;2.40;;;2.40;;
3527;SDS011;1778;47.966;7.854;2022-11-13T07:41:17;2.50;;;2.50;;
3527;SDS011;1778;47.966;7.854;2022-11-13T07:42:37;3.13;;;3.03;;
3527;SDS011;1778;47.966;7.854;2022-11-13T07:43:57;2.30;;;2.30;;
3527;SDS011;1778;47.966;7.854;2022-11-13T07:45:17;2.20;;;2.20;;
3527;SDS011;1778;47.966;7.854;2022-11-13T07:46:37;2.43;;;2.43;;
3527;SDS011;1778;47.966;7.854;2022-11-13T07:48:01;2.30;;;2.30;;
3527;SDS011;1778;47.966;7.854;2022-11-13T07:49:21;3.13;;;3.03;;
3527;SDS011;1778;47.966;7.854;2022-11-13T07:50:42;3.00;;;2.90;;
3527;SDS011;1778;47.966;7.854;2022-11-13T07:52:02;2.10;;;2.10;;
3527;SDS011;1778;47.966;7.854;2022-11-13T07:53:21;2.67;;;2.57;;
3527;SDS011;1778;47.966;7.854;2022-11-13T07:54:41;2.37;;;2.37;;
3527;SDS011;1778;47.966;7.854;2022-11-13T07:56:02;2.40;;;2.40;;
3527;SDS011;1778;47.966;7.854;2022-11-13T07:57:22;2.53;;;2.50;;
3527;SDS011;1778;47.966;7.854;2022-11-13T07:58:42;3.10;;;3.00;;
3527;SDS011;1778;47.966;7.854;2022-11-13T08:00:02;2.80;;;2.60;;
3527;SDS011;1778;47.966;7.854;2022-11-13T08:01:23;2.83;;;2.73;;
3527;SDS011;1778;47.966;7.854;2022-11-13T08:02:43;2.20;;;2.20;;
3527;SDS011;1778;47.966;7.854;2022-11-13T08:04:06;2.50;;;2.50;;
3527;SDS011;1778;47.966;7.854;2022-11-13T08:05:26;2.73;;;2.73;;
3527;SDS011;1778;47.966;7.854;2022-11-13T08:06:45;2.70;;;2.60;;
3527;SDS011;1778;47.966;7.854;2022-11-13T08:08:06;2.33;;;2.33;;
3527;SDS011;1778;47.966;7.854;2022-11-13T08:09:29;2.60;;;2.50;;
3527;SDS011;1778;47.966;7.854;2022-11-13T08:10:50;2.30;;;2.30;;
3527;SDS011;1778;47.966;7.854;2022-11-13T08:12:09;2.83;;;2.83;;
3527;SDS011;1778;47.966;7.854;2022-11-13T08:13:30;2.33;;;2.33;;
3527;SDS011;1778;47.966;7.854;2022-11-13T08:14:50;2.43;;;2.43;;
3527;SDS011;1778;47.966;7.854;2022-11-13T08:16:10;3.00;;;2.90;;
3527;SDS011;1778;47.966;7.854;2022-11-13T08:17:30;2.50;;;2.43;;
3527;SDS011;1778;47.966;7.854;2022-11-13T08:18:50;2.70;;;2.60;;
3527;SDS011;1778;47.966;7.854;2022-11-13T08:20:10;2.53;;;2.53;;
3527;SDS011;1778;47.966;7.854;2022-11-13T08:21:33;2.50;;;2.50;;
3527;SDS011;1778;47.966;7.854;2022-11-13T08:22:57;2.80;;;2.70;;
3527;SDS011;1778;47.966;7.854;2022-11-13T08:24:18;3.13;;;3.03;;
3527;SDS011;1778;47.966;7.854;2022-11-13T08:25:38;2.43;;;2.43;;
3527;SDS011;1778;47.966;7.854;2022-11-13T08:26:58;2.20;;;2.20;;